sensor_id;sensor_type;location;lat;lon;timestamp;P1;durP1;ratioP1;P2;durP2;ratioP2
33902;SDS011;20194;50.950;5.346;2022-12-07T00:01:30;20.55;;;11.23;;
33902;SDS011;20194;50.950;5.346;2022-12-07T00:03:58;26.83;;;11.27;;
33902;SDS011;20194;50.950;5.346;2022-12-07T00:06:29;21.42;;;11.98;;
33902;SDS011;20194;50.950;5.346;2022-12-07T00:08:56;23.30;;;11.63;;
33902;SDS011;20194;50.950;5.346;2022-12-07T00:11:22;22.20;;;10.85;;
33902;SDS011;20194;50.950;5.346;2022-12-07T00:13:58;21.80;;;11.65;;
33902;SDS011;20194;50.950;5.346;2022-12-07T00:16:26;19.83;;;11.68;;
33902;SDS011;20194;50.950;5.346;2022-12-07T00:18:54;26.52;;;11.70;;
33902;SDS011;20194;50.950;5.346;2022-12-07T00:21:21;21.17;;;11.30;;
33902;SDS011;20194;50.950;5.346;2022-12-07T00:23:48;22.27;;;11.77;;
33902;SDS011;20194;50.950;5.346;2022-12-07T00:28:49;21.53;;;11.73;;
33902;SDS011;20194;50.950;5.346;2022-12-07T00:31:17;26.42;;;12.02;;
33902;SDS011;20194;50.950;5.346;2022-12-07T00:33:44;19.83;;;12.18;;
33902;SDS011;20194;50.950;5.346;2022-12-07T00:36:12;20.67;;;11.90;;
33902;SDS011;20194;50.950;5.346;2022-12-07T00:38:39;22.00;;;12.27;;
33902;SDS011;20194;50.950;5.346;2022-12-07T00:41:06;26.33;;;12.73;;
33902;SDS011;20194;50.950;5.346;2022-12-07T00:43:36;20.88;;;11.60;;
33902;SDS011;20194;50.950;5.346;2022-12-07T00:46:02;21.20;;;11.40;;
33902;SDS011;20194;50.950;5.346;2022-12-07T00:48:28;18.30;;;10.82;;
33902;SDS011;20194;50.950;5.346;2022-12-07T00:50:54;20.58;;;11.70;;
33902;SDS011;20194;50.950;5.346;2022-12-07T00:53:20;22.42;;;11.65;;
33902;SDS011;20194;50.950;5.346;2022-12-07T00:55:47;22.33;;;11.15;;
33902;SDS011;20194;50.950;5.346;2022-12-07T00:58:13;25.15;;;11.75;;
33902;SDS011;20194;50.950;5.346;2022-12-07T01:00:40;22.88;;;11.38;;
33902;SDS011;20194;50.950;5.346;2022-12-07T01:03:06;21.65;;;12.77;;
33902;SDS011;20194;50.950;5.346;2022-12-07T01:05:34;25.52;;;12.60;;
33902;SDS011;20194;50.950;5.346;2022-12-07T01:08:00;24.77;;;12.77;;
33902;SDS011;20194;50.950;5.346;2022-12-07T01:10:26;22.55;;;12.27;;
33902;SDS011;20194;50.950;5.346;2022-12-07T01:12:52;24.23;;;12.02;;
33902;SDS011;20194;50.950;5.346;2022-12-07T01:15:18;24.52;;;12.50;;
33902;SDS011;20194;50.950;5.346;2022-12-07T01:17:44;28.52;;;13.27;;
33902;SDS011;20194;50.950;5.346;2022-12-07T01:20:10;22.10;;;11.70;;
33902;SDS011;20194;50.950;5.346;2022-12-07T01:22:40;21.60;;;12.65;;
33902;SDS011;20194;50.950;5.346;2022-12-07T01:25:07;23.70;;;12.35;;
33902;SDS011;20194;50.950;5.346;2022-12-07T01:27:35;25.60;;;12.13;;
33902;SDS011;20194;50.950;5.346;2022-12-07T01:30:02;21.45;;;11.30;;
33902;SDS011;20194;50.950;5.346;2022-12-07T01:32:29;19.27;;;11.48;;
33902;SDS011;20194;50.950;5.346;2022-12-07T01:34:55;21.80;;;11.95;;
33902;SDS011;20194;50.950;5.346;2022-12-07T01:37:20;24.27;;;12.05;;
33902;SDS011;20194;50.950;5.346;2022-12-07T01:39:49;21.48;;;11.68;;
33902;SDS011;20194;50.950;5.346;2022-12-07T01:42:16;23.60;;;13.00;;
33902;SDS011;20194;50.950;5.346;2022-12-07T01:47:46;21.08;;;11.48;;
33902;SDS011;20194;50.950;5.346;2022-12-07T01:50:15;22.10;;;11.38;;
33902;SDS011;20194;50.950;5.346;2022-12-07T01:52:41;25.65;;;12.60;;
33902;SDS011;20194;50.950;5.346;2022-12-07T01:55:10;22.00;;;12.30;;
33902;SDS011;20194;50.950;5.346;2022-12-07T01:57:39;24.17;;;11.55;;
33902;SDS011;20194;50.950;5.346;2022-12-07T02:00:09;20.17;;;11.07;;
33902;SDS011;20194;50.950;5.346;2022-12-07T02:03:19;25.83;;;12.50;;
33902;SDS011;20194;50.950;5.346;2022-12-07T02:05:29;22.10;;;11.98;;
33902;SDS011;20194;50.950;5.346;2022-12-07T02:07:55;21.20;;;10.88;;
33902;SDS011;20194;50.950;5.346;2022-12-07T02:10:23;25.65;;;12.60;;
33902;SDS011;20194;50.950;5.346;2022-12-07T02:20:57;18.42;;;11.07;;
33902;SDS011;20194;50.950;5.346;2022-12-07T02:28:36;19.38;;;11.27;;
33902;SDS011;20194;50.950;5.346;2022-12-07T02:31:14;24.50;;;12.02;;
33902;SDS011;20194;50.950;5.346;2022-12-07T02:33:47;22.05;;;11.75;;
33902;SDS011;20194;50.950;5.346;2022-12-07T02:36:25;25.02;;;11.38;;
33902;SDS011;20194;50.950;5.346;2022-12-07T02:39:17;19.17;;;11.30;;
33902;SDS011;20194;50.950;5.346;2022-12-07T02:41:46;20.73;;;11.73;;
33902;SDS011;20194;50.950;5.346;2022-12-07T02:44:17;26.85;;;11.27;;
33902;SDS011;20194;50.950;5.346;2022-12-07T02:46:53;23.33;;;12.05;;
33902;SDS011;20194;50.950;5.346;2022-12-07T02:49:22;20.45;;;11.63;;
33902;SDS011;20194;50.950;5.346;2022-12-07T02:51:51;22.52;;;11.38;;
33902;SDS011;20194;50.950;5.346;2022-12-07T02:54:18;21.85;;;12.02;;
33902;SDS011;20194;50.950;5.346;2022-12-07T02:56:52;23.73;;;12.48;;
33902;SDS011;20194;50.950;5.346;2022-12-07T03:02:26;22.40;;;11.63;;
33902;SDS011;20194;50.950;5.346;2022-12-07T03:08:42;22.77;;;12.65;;
33902;SDS011;20194;50.950;5.346;2022-12-07T03:13:30;22.92;;;12.73;;
33902;SDS011;20194;50.950;5.346;2022-12-07T03:19:18;23.67;;;13.57;;
33902;SDS011;20194;50.950;5.346;2022-12-07T03:21:47;19.60;;;12.13;;
33902;SDS011;20194;50.950;5.346;2022-12-07T03:24:19;32.72;;;13.40;;
33902;SDS011;20194;50.950;5.346;2022-12-07T03:26:49;29.10;;;13.20;;
33902;SDS011;20194;50.950;5.346;2022-12-07T03:29:20;27.52;;;14.85;;
33902;SDS011;20194;50.950;5.346;2022-12-07T03:31:54;25.00;;;13.20;;
33902;SDS011;20194;50.950;5.346;2022-12-07T03:34:31;29.77;;;14.52;;
33902;SDS011;20194;50.950;5.346;2022-12-07T03:37:10;30.65;;;13.57;;
33902;SDS011;20194;50.950;5.346;2022-12-07T03:42:23;29.65;;;15.15;;
33902;SDS011;20194;50.950;5.346;2022-12-07T03:44:49;29.27;;;15.02;;
33902;SDS011;20194;50.950;5.346;2022-12-07T03:47:16;26.00;;;15.52;;
33902;SDS011;20194;50.950;5.346;2022-12-07T03:50:48;27.98;;;15.65;;
33902;SDS011;20194;50.950;5.346;2022-12-07T03:53:05;27.95;;;14.73;;
33902;SDS011;20194;50.950;5.346;2022-12-07T03:55:37;28.60;;;16.50;;
33902;SDS011;20194;50.950;5.346;2022-12-07T03:58:09;31.45;;;14.13;;
33902;SDS011;20194;50.950;5.346;2022-12-07T04:00:37;25.38;;;14.07;;
33902;SDS011;20194;50.950;5.346;2022-12-07T04:03:03;28.92;;;14.80;;
33902;SDS011;20194;50.950;5.346;2022-12-07T04:05:29;24.83;;;14.52;;
33902;SDS011;20194;50.950;5.346;2022-12-07T04:07:55;25.10;;;14.10;;
33902;SDS011;20194;50.950;5.346;2022-12-07T04:10:20;27.02;;;14.95;;
33902;SDS011;20194;50.950;5.346;2022-12-07T04:12:46;31.02;;;14.88;;
33902;SDS011;20194;50.950;5.346;2022-12-07T04:15:12;26.67;;;14.55;;
33902;SDS011;20194;50.950;5.346;2022-12-07T04:17:38;25.85;;;14.88;;
33902;SDS011;20194;50.950;5.346;2022-12-07T04:20:04;26.10;;;14.20;;
33902;SDS011;20194;50.950;5.346;2022-12-07T04:22:30;25.30;;;14.27;;
33902;SDS011;20194;50.950;5.346;2022-12-07T04:24:56;25.95;;;14.38;;
33902;SDS011;20194;50.950;5.346;2022-12-07T04:27:22;26.15;;;13.55;;
33902;SDS011;20194;50.950;5.346;2022-12-07T04:29:48;31.15;;;15.05;;
33902;SDS011;20194;50.950;5.346;2022-12-07T04:32:13;22.83;;;14.07;;
33902;SDS011;20194;50.950;5.346;2022-12-07T04:34:39;25.90;;;14.60;;
33902;SDS011;20194;50.950;5.346;2022-12-07T04:37:05;22.40;;;13.30;;
33902;SDS011;20194;50.950;5.346;2022-12-07T04:39:32;22.33;;;13.32;;
33902;SDS011;20194;50.950;5.346;2022-12-07T04:41:58;24.52;;;13.40;;
33902;SDS011;20194;50.950;5.346;2022-12-07T04:44:25;23.30;;;13.70;;
33902;SDS011;20194;50.950;5.346;2022-12-07T04:46:52;25.65;;;13.82;;
33902;SDS011;20194;50.950;5.346;2022-12-07T04:49:19;26.30;;;13.82;;
33902;SDS011;20194;50.950;5.346;2022-12-07T04:51:45;24.83;;;13.35;;
33902;SDS011;20194;50.950;5.346;2022-12-07T04:54:12;22.63;;;13.32;;
33902;SDS011;20194;50.950;5.346;2022-12-07T04:56:38;23.40;;;14.50;;
33902;SDS011;20194;50.950;5.346;2022-12-07T04:59:04;31.02;;;14.90;;
33902;SDS011;20194;50.950;5.346;2022-12-07T05:01:30;27.08;;;14.77;;
33902;SDS011;20194;50.950;5.346;2022-12-07T05:03:56;28.27;;;14.63;;
33902;SDS011;20194;50.950;5.346;2022-12-07T05:06:22;25.55;;;14.60;;
33902;SDS011;20194;50.950;5.346;2022-12-07T05:08:48;26.17;;;14.65;;
33902;SDS011;20194;50.950;5.346;2022-12-07T05:11:14;25.13;;;13.95;;
33902;SDS011;20194;50.950;5.346;2022-12-07T05:13:59;25.95;;;14.00;;
33902;SDS011;20194;50.950;5.346;2022-12-07T05:16:25;24.50;;;13.25;;
33902;SDS011;20194;50.950;5.346;2022-12-07T05:18:51;22.85;;;13.50;;
33902;SDS011;20194;50.950;5.346;2022-12-07T05:21:17;23.63;;;12.40;;
33902;SDS011;20194;50.950;5.346;2022-12-07T05:23:43;28.05;;;13.88;;
33902;SDS011;20194;50.950;5.346;2022-12-07T05:26:08;22.77;;;12.77;;
33902;SDS011;20194;50.950;5.346;2022-12-07T05:28:34;21.13;;;13.15;;
33902;SDS011;20194;50.950;5.346;2022-12-07T05:31:00;25.38;;;13.88;;
33902;SDS011;20194;50.950;5.346;2022-12-07T05:33:26;25.70;;;12.75;;
33902;SDS011;20194;50.950;5.346;2022-12-07T05:35:52;24.42;;;13.75;;
33902;SDS011;20194;50.950;5.346;2022-12-07T05:38:17;24.95;;;13.63;;
33902;SDS011;20194;50.950;5.346;2022-12-07T05:40:43;28.20;;;15.27;;
33902;SDS011;20194;50.950;5.346;2022-12-07T05:43:09;25.25;;;13.45;;
33902;SDS011;20194;50.950;5.346;2022-12-07T05:45:35;20.83;;;13.38;;
33902;SDS011;20194;50.950;5.346;2022-12-07T05:48:01;24.02;;;13.60;;
33902;SDS011;20194;50.950;5.346;2022-12-07T05:50:26;23.65;;;14.55;;
33902;SDS011;20194;50.950;5.346;2022-12-07T05:52:53;24.75;;;13.77;;
33902;SDS011;20194;50.950;5.346;2022-12-07T05:55:18;25.38;;;13.60;;
33902;SDS011;20194;50.950;5.346;2022-12-07T05:57:45;25.85;;;14.38;;
33902;SDS011;20194;50.950;5.346;2022-12-07T06:00:31;22.83;;;13.23;;
33902;SDS011;20194;50.950;5.346;2022-12-07T06:02:57;28.25;;;15.10;;
33902;SDS011;20194;50.950;5.346;2022-12-07T06:05:22;24.30;;;14.68;;
33902;SDS011;20194;50.950;5.346;2022-12-07T06:07:48;28.15;;;15.48;;
33902;SDS011;20194;50.950;5.346;2022-12-07T06:10:14;24.23;;;13.95;;
33902;SDS011;20194;50.950;5.346;2022-12-07T06:12:40;24.73;;;15.20;;
33902;SDS011;20194;50.950;5.346;2022-12-07T06:15:08;24.60;;;14.15;;
33902;SDS011;20194;50.950;5.346;2022-12-07T06:17:35;27.00;;;14.10;;
33902;SDS011;20194;50.950;5.346;2022-12-07T06:20:01;28.67;;;14.30;;
33902;SDS011;20194;50.950;5.346;2022-12-07T06:22:28;30.77;;;15.40;;
33902;SDS011;20194;50.950;5.346;2022-12-07T06:24:53;22.67;;;13.30;;
33902;SDS011;20194;50.950;5.346;2022-12-07T06:27:19;24.48;;;14.05;;
33902;SDS011;20194;50.950;5.346;2022-12-07T06:29:45;25.38;;;14.85;;
33902;SDS011;20194;50.950;5.346;2022-12-07T06:32:10;27.40;;;14.73;;
33902;SDS011;20194;50.950;5.346;2022-12-07T06:34:37;23.98;;;13.77;;
33902;SDS011;20194;50.950;5.346;2022-12-07T06:37:02;27.63;;;13.60;;
33902;SDS011;20194;50.950;5.346;2022-12-07T06:39:29;28.02;;;14.20;;
33902;SDS011;20194;50.950;5.346;2022-12-07T06:41:55;26.33;;;13.30;;
33902;SDS011;20194;50.950;5.346;2022-12-07T06:44:22;26.13;;;13.45;;
33902;SDS011;20194;50.950;5.346;2022-12-07T06:46:48;23.85;;;14.32;;
33902;SDS011;20194;50.950;5.346;2022-12-07T06:49:15;24.30;;;13.65;;
33902;SDS011;20194;50.950;5.346;2022-12-07T06:51:41;26.23;;;14.05;;
33902;SDS011;20194;50.950;5.346;2022-12-07T06:54:08;34.58;;;13.82;;
33902;SDS011;20194;50.950;5.346;2022-12-07T06:56:35;25.73;;;14.55;;
33902;SDS011;20194;50.950;5.346;2022-12-07T06:59:01;22.90;;;14.45;;
33902;SDS011;20194;50.950;5.346;2022-12-07T07:01:27;22.88;;;13.05;;
33902;SDS011;20194;50.950;5.346;2022-12-07T07:03:53;25.88;;;14.07;;
33902;SDS011;20194;50.950;5.346;2022-12-07T07:06:19;26.60;;;14.55;;
33902;SDS011;20194;50.950;5.346;2022-12-07T07:08:44;20.67;;;13.65;;
33902;SDS011;20194;50.950;5.346;2022-12-07T07:11:10;28.02;;;14.30;;
33902;SDS011;20194;50.950;5.346;2022-12-07T07:13:37;24.25;;;13.85;;
33902;SDS011;20194;50.950;5.346;2022-12-07T07:16:03;23.38;;;13.68;;
33902;SDS011;20194;50.950;5.346;2022-12-07T07:18:29;24.83;;;14.00;;
33902;SDS011;20194;50.950;5.346;2022-12-07T07:20:55;23.63;;;13.57;;
33902;SDS011;20194;50.950;5.346;2022-12-07T07:23:21;21.40;;;12.80;;
33902;SDS011;20194;50.950;5.346;2022-12-07T07:25:47;37.35;;;14.57;;
33902;SDS011;20194;50.950;5.346;2022-12-07T07:28:13;24.08;;;13.60;;
33902;SDS011;20194;50.950;5.346;2022-12-07T07:30:39;22.00;;;13.20;;
33902;SDS011;20194;50.950;5.346;2022-12-07T07:33:05;26.60;;;13.60;;
33902;SDS011;20194;50.950;5.346;2022-12-07T07:35:31;23.48;;;13.95;;
33902;SDS011;20194;50.950;5.346;2022-12-07T07:37:58;20.40;;;12.68;;
33902;SDS011;20194;50.950;5.346;2022-12-07T07:40:24;25.45;;;13.18;;
33902;SDS011;20194;50.950;5.346;2022-12-07T07:42:50;27.58;;;14.25;;
33902;SDS011;20194;50.950;5.346;2022-12-07T07:45:17;23.55;;;12.88;;
33902;SDS011;20194;50.950;5.346;2022-12-07T07:47:44;20.27;;;12.75;;
33902;SDS011;20194;50.950;5.346;2022-12-07T07:50:10;23.05;;;12.80;;
33902;SDS011;20194;50.950;5.346;2022-12-07T07:52:36;23.00;;;13.10;;
33902;SDS011;20194;50.950;5.346;2022-12-07T07:55:02;19.55;;;12.10;;
33902;SDS011;20194;50.950;5.346;2022-12-07T07:57:28;20.75;;;12.38;;
33902;SDS011;20194;50.950;5.346;2022-12-07T07:59:54;27.77;;;14.75;;
33902;SDS011;20194;50.950;5.346;2022-12-07T08:02:20;26.55;;;12.88;;
33902;SDS011;20194;50.950;5.346;2022-12-07T08:04:47;26.83;;;14.57;;
33902;SDS011;20194;50.950;5.346;2022-12-07T08:07:13;26.08;;;13.48;;
33902;SDS011;20194;50.950;5.346;2022-12-07T08:09:39;30.13;;;13.73;;
33902;SDS011;20194;50.950;5.346;2022-12-07T08:12:05;23.00;;;13.98;;
33902;SDS011;20194;50.950;5.346;2022-12-07T08:14:31;28.35;;;13.35;;
33902;SDS011;20194;50.950;5.346;2022-12-07T08:16:57;26.75;;;13.82;;
33902;SDS011;20194;50.950;5.346;2022-12-07T08:19:23;28.73;;;14.45;;
33902;SDS011;20194;50.950;5.346;2022-12-07T08:21:49;26.77;;;14.63;;
33902;SDS011;20194;50.950;5.346;2022-12-07T08:24:15;27.85;;;13.93;;
33902;SDS011;20194;50.950;5.346;2022-12-07T08:26:41;25.55;;;13.95;;
33902;SDS011;20194;50.950;5.346;2022-12-07T08:29:07;27.83;;;14.30;;
33902;SDS011;20194;50.950;5.346;2022-12-07T08:31:33;30.98;;;14.68;;
33902;SDS011;20194;50.950;5.346;2022-12-07T08:33:59;35.10;;;14.02;;
33902;SDS011;20194;50.950;5.346;2022-12-07T08:36:25;28.85;;;14.38;;
33902;SDS011;20194;50.950;5.346;2022-12-07T08:38:51;24.65;;;14.32;;
33902;SDS011;20194;50.950;5.346;2022-12-07T08:41:17;27.08;;;14.02;;
33902;SDS011;20194;50.950;5.346;2022-12-07T08:43:43;26.45;;;13.15;;
33902;SDS011;20194;50.950;5.346;2022-12-07T08:46:10;30.27;;;14.15;;
33902;SDS011;20194;50.950;5.346;2022-12-07T08:48:44;28.98;;;14.45;;
33902;SDS011;20194;50.950;5.346;2022-12-07T08:51:17;26.52;;;14.90;;
33902;SDS011;20194;50.950;5.346;2022-12-07T08:53:44;28.70;;;15.18;;
33902;SDS011;20194;50.950;5.346;2022-12-07T08:56:10;31.83;;;16.65;;
33902;SDS011;20194;50.950;5.346;2022-12-07T08:58:36;27.67;;;15.85;;
33902;SDS011;20194;50.950;5.346;2022-12-07T09:01:04;28.38;;;14.85;;
33902;SDS011;20194;50.950;5.346;2022-12-07T09:03:30;24.95;;;14.25;;
33902;SDS011;20194;50.950;5.346;2022-12-07T09:05:56;23.95;;;14.38;;
33902;SDS011;20194;50.950;5.346;2022-12-07T09:08:23;26.65;;;13.52;;
33902;SDS011;20194;50.950;5.346;2022-12-07T09:10:54;26.48;;;13.15;;
33902;SDS011;20194;50.950;5.346;2022-12-07T09:13:20;27.50;;;13.52;;
33902;SDS011;20194;50.950;5.346;2022-12-07T09:15:45;24.65;;;13.95;;
33902;SDS011;20194;50.950;5.346;2022-12-07T09:18:12;29.55;;;13.77;;
33902;SDS011;20194;50.950;5.346;2022-12-07T09:20:37;25.60;;;14.95;;
33902;SDS011;20194;50.950;5.346;2022-12-07T09:23:05;28.05;;;13.48;;
33902;SDS011;20194;50.950;5.346;2022-12-07T09:25:31;26.02;;;12.60;;
33902;SDS011;20194;50.950;5.346;2022-12-07T09:27:57;24.60;;;12.95;;
33902;SDS011;20194;50.950;5.346;2022-12-07T09:30:23;23.30;;;12.80;;
33902;SDS011;20194;50.950;5.346;2022-12-07T09:32:50;31.65;;;12.82;;
33902;SDS011;20194;50.950;5.346;2022-12-07T09:35:17;22.88;;;11.73;;
33902;SDS011;20194;50.950;5.346;2022-12-07T09:37:43;27.23;;;11.57;;
33902;SDS011;20194;50.950;5.346;2022-12-07T09:40:09;21.00;;;10.98;;
33902;SDS011;20194;50.950;5.346;2022-12-07T09:42:38;19.00;;;9.35;;
33902;SDS011;20194;50.950;5.346;2022-12-07T09:45:32;21.42;;;9.70;;
33902;SDS011;20194;50.950;5.346;2022-12-07T09:47:58;19.02;;;9.82;;
33902;SDS011;20194;50.950;5.346;2022-12-07T09:50:25;23.25;;;10.75;;
33902;SDS011;20194;50.950;5.346;2022-12-07T09:52:53;19.48;;;10.02;;
33902;SDS011;20194;50.950;5.346;2022-12-07T09:55:29;18.65;;;9.68;;
33902;SDS011;20194;50.950;5.346;2022-12-07T09:57:56;17.33;;;8.52;;
33902;SDS011;20194;50.950;5.346;2022-12-07T10:00:23;20.52;;;8.98;;
33902;SDS011;20194;50.950;5.346;2022-12-07T10:02:55;16.45;;;8.20;;
33902;SDS011;20194;50.950;5.346;2022-12-07T10:05:24;20.25;;;8.40;;
33902;SDS011;20194;50.950;5.346;2022-12-07T10:07:55;22.13;;;8.45;;
33902;SDS011;20194;50.950;5.346;2022-12-07T10:10:25;14.82;;;7.93;;
33902;SDS011;20194;50.950;5.346;2022-12-07T10:15:23;12.15;;;6.82;;
33902;SDS011;20194;50.950;5.346;2022-12-07T10:18:14;14.75;;;6.90;;
33902;SDS011;20194;50.950;5.346;2022-12-07T10:20:49;16.23;;;7.10;;
33902;SDS011;20194;50.950;5.346;2022-12-07T10:23:27;19.40;;;7.32;;
33902;SDS011;20194;50.950;5.346;2022-12-07T10:25:54;14.35;;;5.78;;
33902;SDS011;20194;50.950;5.346;2022-12-07T10:28:20;16.80;;;5.97;;
33902;SDS011;20194;50.950;5.346;2022-12-07T10:30:47;13.60;;;6.45;;
33902;SDS011;20194;50.950;5.346;2022-12-07T10:35:54;13.88;;;7.15;;
33902;SDS011;20194;50.950;5.346;2022-12-07T10:38:21;14.10;;;6.43;;
33902;SDS011;20194;50.950;5.346;2022-12-07T10:40:46;12.73;;;6.70;;
33902;SDS011;20194;50.950;5.346;2022-12-07T10:51:15;12.18;;;6.72;;
33902;SDS011;20194;50.950;5.346;2022-12-07T10:59:37;15.15;;;6.07;;
33902;SDS011;20194;50.950;5.346;2022-12-07T11:02:24;15.00;;;6.70;;
33902;SDS011;20194;50.950;5.346;2022-12-07T11:05:52;14.90;;;6.00;;
33902;SDS011;20194;50.950;5.346;2022-12-07T11:10:50;24.02;;;6.63;;
33902;SDS011;20194;50.950;5.346;2022-12-07T11:21:30;13.15;;;5.50;;
33902;SDS011;20194;50.950;5.346;2022-12-07T11:24:19;10.93;;;5.68;;
33902;SDS011;20194;50.950;5.346;2022-12-07T11:36:57;10.90;;;5.63;;
33902;SDS011;20194;50.950;5.346;2022-12-07T11:42:06;15.95;;;6.13;;
33902;SDS011;20194;50.950;5.346;2022-12-07T11:50:05;15.10;;;5.30;;
33902;SDS011;20194;50.950;5.346;2022-12-07T11:56:01;16.80;;;5.40;;
33902;SDS011;20194;50.950;5.346;2022-12-07T12:03:51;11.68;;;3.70;;
33902;SDS011;20194;50.950;5.346;2022-12-07T12:06:22;16.60;;;3.75;;
33902;SDS011;20194;50.950;5.346;2022-12-07T12:22:43;15.15;;;4.95;;
33902;SDS011;20194;50.950;5.346;2022-12-07T12:30:45;13.65;;;4.60;;
33902;SDS011;20194;50.950;5.346;2022-12-07T12:33:29;13.65;;;4.40;;
33902;SDS011;20194;50.950;5.346;2022-12-07T12:44:00;17.58;;;4.57;;
33902;SDS011;20194;50.950;5.346;2022-12-07T12:54:25;8.57;;;3.50;;
33902;SDS011;20194;50.950;5.346;2022-12-07T13:02:30;11.45;;;3.20;;
33902;SDS011;20194;50.950;5.346;2022-12-07T13:15:40;5.82;;;2.63;;
33902;SDS011;20194;50.950;5.346;2022-12-07T13:18:22;5.65;;;2.33;;
33902;SDS011;20194;50.950;5.346;2022-12-07T13:29:04;8.90;;;3.65;;
33902;SDS011;20194;50.950;5.346;2022-12-07T13:34:31;5.95;;;3.17;;
33902;SDS011;20194;50.950;5.346;2022-12-07T13:37:10;11.95;;;3.05;;
33902;SDS011;20194;50.950;5.346;2022-12-07T13:42:32;10.63;;;2.80;;
33902;SDS011;20194;50.950;5.346;2022-12-07T13:45:00;8.88;;;2.63;;
33902;SDS011;20194;50.950;5.346;2022-12-07T13:47:49;10.50;;;2.78;;
33902;SDS011;20194;50.950;5.346;2022-12-07T13:50:29;13.65;;;3.03;;
33902;SDS011;20194;50.950;5.346;2022-12-07T13:52:56;6.40;;;2.45;;
33902;SDS011;20194;50.950;5.346;2022-12-07T13:55:24;6.35;;;2.17;;
33902;SDS011;20194;50.950;5.346;2022-12-07T13:57:51;6.68;;;2.35;;
33902;SDS011;20194;50.950;5.346;2022-12-07T14:00:22;7.28;;;2.30;;
33902;SDS011;20194;50.950;5.346;2022-12-07T14:02:57;8.23;;;2.05;;
33902;SDS011;20194;50.950;5.346;2022-12-07T14:05:28;13.85;;;2.88;;
33902;SDS011;20194;50.950;5.346;2022-12-07T14:10:35;8.50;;;2.47;;
33902;SDS011;20194;50.950;5.346;2022-12-07T14:13:03;10.88;;;2.40;;
33902;SDS011;20194;50.950;5.346;2022-12-07T14:15:50;7.82;;;2.20;;
33902;SDS011;20194;50.950;5.346;2022-12-07T14:23:36;7.07;;;3.00;;
33902;SDS011;20194;50.950;5.346;2022-12-07T14:26:07;5.22;;;2.70;;
33902;SDS011;20194;50.950;5.346;2022-12-07T14:28:38;9.00;;;3.00;;
33902;SDS011;20194;50.950;5.346;2022-12-07T14:31:08;10.90;;;4.00;;
33902;SDS011;20194;50.950;5.346;2022-12-07T14:33:40;14.25;;;4.55;;
33902;SDS011;20194;50.950;5.346;2022-12-07T14:36:08;11.25;;;4.38;;
33902;SDS011;20194;50.950;5.346;2022-12-07T14:38:36;9.52;;;4.75;;
33902;SDS011;20194;50.950;5.346;2022-12-07T14:41:02;14.88;;;4.32;;
33902;SDS011;20194;50.950;5.346;2022-12-07T14:43:52;13.70;;;4.57;;
33902;SDS011;20194;50.950;5.346;2022-12-07T14:46:18;8.85;;;4.68;;
33902;SDS011;20194;50.950;5.346;2022-12-07T14:48:44;14.02;;;4.93;;
33902;SDS011;20194;50.950;5.346;2022-12-07T14:51:10;15.77;;;5.07;;
33902;SDS011;20194;50.950;5.346;2022-12-07T14:53:39;12.00;;;5.30;;
33902;SDS011;20194;50.950;5.346;2022-12-07T14:56:08;14.35;;;5.40;;
33902;SDS011;20194;50.950;5.346;2022-12-07T14:58:34;17.58;;;5.53;;
33902;SDS011;20194;50.950;5.346;2022-12-07T15:01:00;15.50;;;5.25;;
33902;SDS011;20194;50.950;5.346;2022-12-07T15:03:26;12.52;;;5.38;;
33902;SDS011;20194;50.950;5.346;2022-12-07T15:05:52;14.13;;;5.43;;
33902;SDS011;20194;50.950;5.346;2022-12-07T15:08:17;12.45;;;4.97;;
33902;SDS011;20194;50.950;5.346;2022-12-07T15:10:43;12.93;;;5.78;;
33902;SDS011;20194;50.950;5.346;2022-12-07T15:13:09;12.65;;;6.15;;
33902;SDS011;20194;50.950;5.346;2022-12-07T15:18:20;12.02;;;5.38;;
33902;SDS011;20194;50.950;5.346;2022-12-07T15:20:47;14.50;;;5.35;;
33902;SDS011;20194;50.950;5.346;2022-12-07T15:23:13;14.48;;;6.15;;
33902;SDS011;20194;50.950;5.346;2022-12-07T15:25:42;9.45;;;6.22;;
33902;SDS011;20194;50.950;5.346;2022-12-07T15:28:09;10.88;;;5.15;;
33902;SDS011;20194;50.950;5.346;2022-12-07T15:30:39;19.50;;;7.28;;
33902;SDS011;20194;50.950;5.346;2022-12-07T15:33:07;13.15;;;5.53;;
33902;SDS011;20194;50.950;5.346;2022-12-07T15:35:33;8.73;;;5.22;;
33902;SDS011;20194;50.950;5.346;2022-12-07T15:38:03;12.63;;;5.75;;
33902;SDS011;20194;50.950;5.346;2022-12-07T15:40:28;15.30;;;5.90;;
33902;SDS011;20194;50.950;5.346;2022-12-07T15:42:54;9.93;;;5.80;;
33902;SDS011;20194;50.950;5.346;2022-12-07T15:45:20;17.52;;;6.53;;
33902;SDS011;20194;50.950;5.346;2022-12-07T15:47:46;13.30;;;6.32;;
33902;SDS011;20194;50.950;5.346;2022-12-07T15:50:13;11.63;;;5.55;;
33902;SDS011;20194;50.950;5.346;2022-12-07T15:52:41;12.02;;;6.15;;
33902;SDS011;20194;50.950;5.346;2022-12-07T15:55:08;7.82;;;4.57;;
33902;SDS011;20194;50.950;5.346;2022-12-07T15:57:35;10.27;;;4.90;;
33902;SDS011;20194;50.950;5.346;2022-12-07T16:00:03;7.40;;;4.68;;
33902;SDS011;20194;50.950;5.346;2022-12-07T16:02:30;6.70;;;4.55;;
33902;SDS011;20194;50.950;5.346;2022-12-07T16:04:55;9.18;;;4.60;;
33902;SDS011;20194;50.950;5.346;2022-12-07T16:07:21;10.65;;;3.97;;
33902;SDS011;20194;50.950;5.346;2022-12-07T16:09:47;5.38;;;4.10;;
33902;SDS011;20194;50.950;5.346;2022-12-07T16:12:14;10.18;;;3.80;;
33902;SDS011;20194;50.950;5.346;2022-12-07T16:14:40;7.60;;;3.50;;
33902;SDS011;20194;50.950;5.346;2022-12-07T16:17:07;5.03;;;3.42;;
33902;SDS011;20194;50.950;5.346;2022-12-07T16:19:34;9.85;;;3.92;;
33902;SDS011;20194;50.950;5.346;2022-12-07T16:22:01;7.93;;;3.85;;
33902;SDS011;20194;50.950;5.346;2022-12-07T16:24:28;7.78;;;3.35;;
33902;SDS011;20194;50.950;5.346;2022-12-07T16:26:54;9.23;;;4.10;;
33902;SDS011;20194;50.950;5.346;2022-12-07T16:29:20;6.60;;;3.75;;
33902;SDS011;20194;50.950;5.346;2022-12-07T16:31:47;6.65;;;3.58;;
33902;SDS011;20194;50.950;5.346;2022-12-07T16:34:14;4.70;;;3.63;;
33902;SDS011;20194;50.950;5.346;2022-12-07T16:36:40;8.45;;;3.70;;
33902;SDS011;20194;50.950;5.346;2022-12-07T16:39:07;6.10;;;3.67;;
33902;SDS011;20194;50.950;5.346;2022-12-07T16:41:34;4.45;;;3.17;;
33902;SDS011;20194;50.950;5.346;2022-12-07T16:44:02;7.20;;;3.90;;
33902;SDS011;20194;50.950;5.346;2022-12-07T16:46:32;7.28;;;3.95;;
33902;SDS011;20194;50.950;5.346;2022-12-07T16:48:59;8.60;;;3.85;;
33902;SDS011;20194;50.950;5.346;2022-12-07T16:51:25;5.78;;;3.83;;
33902;SDS011;20194;50.950;5.346;2022-12-07T16:53:52;7.03;;;3.53;;
33902;SDS011;20194;50.950;5.346;2022-12-07T16:56:18;5.20;;;3.83;;
33902;SDS011;20194;50.950;5.346;2022-12-07T16:58:44;9.35;;;4.20;;
33902;SDS011;20194;50.950;5.346;2022-12-07T17:01:12;7.45;;;3.85;;
33902;SDS011;20194;50.950;5.346;2022-12-07T17:03:40;5.88;;;3.72;;
33902;SDS011;20194;50.950;5.346;2022-12-07T17:06:12;9.02;;;4.30;;
33902;SDS011;20194;50.950;5.346;2022-12-07T17:08:40;7.20;;;4.22;;
33902;SDS011;20194;50.950;5.346;2022-12-07T17:11:10;8.15;;;4.57;;
33902;SDS011;20194;50.950;5.346;2022-12-07T17:13:40;10.48;;;5.28;;
33902;SDS011;20194;50.950;5.346;2022-12-07T17:16:24;13.65;;;5.25;;
33902;SDS011;20194;50.950;5.346;2022-12-07T17:18:50;16.13;;;6.28;;
33902;SDS011;20194;50.950;5.346;2022-12-07T17:21:16;19.08;;;6.78;;
33902;SDS011;20194;50.950;5.346;2022-12-07T17:23:42;14.20;;;7.38;;